Time;durP1;ratioP1;P1;durP2;ratioP2;P2;SDS_P1;SDS_P2;PMS_P1;PMS_P2;Temp;Humidity;BMP_temperature;BMP_pressure;BME280_temperature;BME280_humidity;BME280_pressure;Samples;Min_cycle;Max_cycle;Signal;HPM_P1;HPM_P2
2023/01/13 08:02:42;;;;;;;;;0.00;0.00;;;;;18.04;51.05;101188.97;5040748;27;46761;-77
2023/01/13 08:05:08;;;;;;;;;0.00;0.00;;;;;18.33;51.46;101195.72;5029845;28;45782;-78
2023/01/13 08:07:34;;;;;;;;;2.00;2.00;;;;;18.76;51.85;101191.41;5035341;28;45496;-78
2023/01/13 08:10:00;;;;;;;;;1.00;1.00;;;;;19.30;52.38;101189.66;5051628;28;45459;-77
2023/01/13 08:15:10;;;;;;;;;2.00;0.00;;;;;20.46;52.26;101196.84;5048982;28;45420;-76
2023/01/13 08:17:36;;;;;;;;;2.33;2.33;;;;;20.96;51.23;101203.25;5051314;28;45340;-76
2023/01/13 08:20:03;;;;;;;;;1.33;1.33;;;;;21.42;51.47;101197.28;5042770;28;45305;-76
2023/01/13 08:22:31;;;;;;;;;3.00;1.33;;;;;21.81;50.65;101199.09;5049331;28;45585;-76
2023/01/13 08:24:57;;;;;;;;;0.00;0.00;;;;;22.16;50.25;101208.41;5049858;28;45598;-76
2023/01/13 08:27:22;;;;;;;;;3.33;3.00;;;;;22.46;49.85;101210.97;5050728;28;45777;-76
2023/01/13 08:29:48;;;;;;;;;3.33;2.33;;;;;22.75;49.27;101223.50;5045335;28;45716;-76
2023/01/13 08:32:13;;;;;;;;;3.00;2.00;;;;;22.99;49.01;101230.19;5044349;28;51808;-76
2023/01/13 08:34:38;;;;;;;;;7.67;2.00;;;;;23.24;48.53;101233.13;5043638;28;53857;-76
2023/01/13 08:37:03;;;;;;;;;1.67;1.67;;;;;23.44;48.25;101236.56;5047118;28;45415;-76
2023/01/13 08:39:29;;;;;;;;;4.67;3.00;;;;;23.60;47.73;101230.44;5046027;28;45499;-76
2023/01/13 08:41:54;;;;;;;;;6.00;2.00;;;;;23.80;47.27;101249.22;5050494;28;46016;-76
2023/01/13 08:44:30;;;;;;;;;4.67;2.00;;;;;23.94;47.14;101245.94;5045095;28;46295;-77
2023/01/13 08:46:56;;;;;;;;;5.00;3.00;;;;;24.10;46.58;101241.66;5048715;28;45424;-76
2023/01/13 08:49:22;;;;;;;;;2.33;1.33;;;;;24.22;47.08;101236.81;5042744;28;45464;-75
2023/01/13 08:51:48;;;;;;;;;2.67;2.00;;;;;24.33;46.46;101231.09;5060194;27;45940;-74
2023/01/13 08:54:14;;;;;;;;;2.67;2.00;;;;;24.47;46.19;101239.63;5053512;28;45493;-75
2023/01/13 08:56:43;;;;;;;;;2.00;2.00;;;;;24.57;45.91;101244.94;5049810;28;45348;-75
2023/01/13 08:59:15;;;;;;;;;2.00;2.00;;;;;24.68;45.91;101257.38;5055520;28;45483;-75
2023/01/13 09:01:40;;;;;;;;;2.00;2.00;;;;;24.74;45.55;101257.53;5049847;28;46158;-77
2023/01/13 09:04:18;;;;;;;;;1.67;1.67;;;;;24.83;45.37;101252.16;5041749;28;45434;-76
2023/01/13 09:06:45;;;;;;;;;2.33;1.00;;;;;24.92;45.38;101264.75;5050945;28;45455;-76
2023/01/13 09:09:10;;;;;;;;;4.33;2.00;;;;;24.98;45.24;101255.13;5049651;28;45691;-76
2023/01/13 09:14:29;;;;;;;;;2.00;2.00;;;;;25.17;44.92;101256.66;5026860;28;45471;-77
2023/01/13 09:16:55;;;;;;;;;8.00;4.00;;;;;25.21;44.24;101260.75;5038716;28;45376;-79
2023/01/13 09:19:20;;;;;;;;;8.67;7.00;;;;;25.28;44.65;101252.78;5035356;28;45371;-80
2023/01/13 09:21:46;;;;;;;;;5.33;4.33;;;;;25.32;43.86;101250.56;5034035;28;46957;-80
2023/01/13 09:24:12;;;;;;;;;10.67;6.67;;;;;25.29;44.23;101254.47;5031685;28;45517;-78
2023/01/13 09:26:37;;;;;;;;;6.00;5.67;;;;;25.38;43.92;101271.66;5035213;28;45456;-78
2023/01/13 09:29:03;;;;;;;;;6.00;4.33;;;;;25.41;43.62;101278.63;5037038;28;45316;-77
2023/01/13 09:31:33;;;;;;;;;6.00;6.00;;;;;25.44;43.62;101275.53;5035295;28;45613;-77
2023/01/13 09:36:43;;;;;;;;;8.33;7.00;;;;;25.49;43.42;101284.03;5036549;28;45787;-77
2023/01/13 09:39:08;;;;;;;;;6.00;6.00;;;;;25.52;43.44;101300.88;5035036;28;45517;-78
2023/01/13 09:44:34;;;;;;;;;6.67;5.33;;;;;25.57;43.07;101297.66;5028611;28;45944;-77
2023/01/13 09:47:03;;;;;;;;;7.33;5.67;;;;;25.60;43.06;101291.03;5034064;28;45525;-77
2023/01/13 09:49:38;;;;;;;;;3.33;2.00;;;;;25.62;42.71;101300.72;5038865;28;45512;-76
2023/01/13 09:52:19;;;;;;;;;5.00;5.00;;;;;25.65;42.78;101305.84;5033829;28;45515;-76
2023/01/13 09:54:54;;;;;;;;;5.00;5.00;;;;;25.70;42.63;101309.91;5035120;28;45768;-77
2023/01/13 09:57:20;;;;;;;;;5.33;4.00;;;;;25.73;42.53;101315.84;5041924;28;47091;-76
2023/01/13 09:59:47;;;;;;;;;6.33;4.67;;;;;25.74;42.61;101333.00;5034480;28;45452;-75
2023/01/13 10:02:31;;;;;;;;;7.33;5.00;;;;;25.79;42.81;101327.94;5027616;28;45765;-76
2023/01/13 10:05:26;;;;;;;;;7.33;5.00;;;;;25.82;42.81;101321.31;5033767;28;45459;-76
2023/01/13 10:07:57;;;;;;;;;5.00;4.00;;;;;25.83;42.62;101323.81;5035278;28;45766;-75
2023/01/13 10:10:33;;;;;;;;;6.33;4.00;;;;;25.83;42.07;101331.16;5030891;28;45412;-77
2023/01/13 10:13:15;;;;;;;;;5.00;4.33;;;;;25.84;42.79;101327.41;5034131;28;47023;-78
2023/01/13 10:16:10;;;;;;;;;3.00;3.00;;;;;25.85;42.30;101326.38;5035056;28;45461;-78
2023/01/13 10:18:54;;;;;;;;;8.33;6.67;;;;;25.86;42.00;101336.22;5022129;28;45472;-79
2023/01/13 10:21:43;;;;;;;;;10.00;6.33;;;;;25.85;42.55;101348.13;5034782;28;45444;-79
2023/01/13 10:24:09;;;;;;;;;9.00;9.00;;;;;25.85;42.46;101348.13;5023902;28;45491;-79
2023/01/13 10:26:50;;;;;;;;;8.00;7.00;;;;;25.84;42.16;101350.03;5034211;28;45464;-79
2023/01/13 10:29:25;;;;;;;;;6.00;4.67;;;;;25.88;42.20;101354.06;5039982;28;45574;-79
2023/01/13 10:31:55;;;;;;;;;8.33;6.67;;;;;25.86;42.15;101349.81;5032514;28;45874;-82
2023/01/13 10:34:22;;;;;;;;;11.67;10.33;;;;;25.87;41.57;101357.00;5025361;28;46459;-77
2023/01/13 10:37:07;;;;;;;;;13.33;8.33;;;;;25.82;41.57;101343.06;5034150;28;45433;-81
2023/01/13 10:39:47;;;;;;;;;8.33;7.00;;;;;25.82;41.77;101353.94;5020608;28;45425;-77
2023/01/13 10:42:18;;;;;;;;;9.33;9.33;;;;;25.79;41.33;101339.63;5028285;28;45573;-76
2023/01/13 10:44:55;;;;;;;;;7.00;7.00;;;;;25.78;41.63;101347.97;5032697;28;46153;-77
2023/01/13 10:47:27;;;;;;;;;9.00;9.00;;;;;25.79;41.89;101336.09;5033525;28;45458;-76
2023/01/13 10:50:11;;;;;;;;;8.00;6.67;;;;;25.79;41.54;101342.34;5037495;28;45811;-76
2023/01/13 10:52:53;;;;;;;;;9.00;9.00;;;;;25.79;41.83;101353.22;5031179;28;45422;-77
2023/01/13 10:55:23;;;;;;;;;3.67;3.33;;;;;25.83;41.39;101339.31;5035497;28;46468;-78
2023/01/13 10:57:48;;;;;;;;;6.67;6.67;;;;;25.85;41.36;101359.00;5034802;28;45466;-77
2023/01/13 11:00:32;;;;;;;;;7.00;6.33;;;;;25.85;41.68;101361.72;5034846;28;45317;-78
2023/01/13 11:03:18;;;;;;;;;8.67;7.67;;;;;25.86;41.22;101377.88;5042056;28;45591;-77
2023/01/13 11:05:49;;;;;;;;;7.33;7.33;;;;;25.87;41.57;101376.84;5033977;28;46407;-79
2023/01/13 11:08:20;;;;;;;;;7.67;7.33;;;;;25.88;41.15;101383.16;5042475;28;45403;-77
2023/01/13 11:10:49;;;;;;;;;11.33;10.00;;;;;25.85;41.25;101378.91;5032880;28;45471;-75
2023/01/13 11:13:27;;;;;;;;;42.00;36.00;;;;;25.86;41.55;101385.19;5032633;28;45625;-76
2023/01/13 11:16:00;;;;;;;;;35.75;31.50;;;;;25.85;40.66;101383.47;5033823;28;45430;-77
2023/01/13 11:19:01;;;;;;;;;27.00;24.33;;;;;25.79;40.63;101396.72;5034087;28;45392;-77
2023/01/13 11:21:37;;;;;;;;;24.67;21.33;;;;;25.76;40.23;101396.22;5033642;28;45561;-76
2023/01/13 11:24:11;;;;;;;;;25.33;21.67;;;;;25.74;40.69;101395.53;5020095;28;47034;-77
2023/01/13 11:26:46;;;;;;;;;23.00;19.33;;;;;25.69;40.26;101385.16;5031436;28;46258;-76
2023/01/13 11:29:36;;;;;;;;;23.00;20.00;;;;;25.70;40.35;101394.19;5030795;28;45459;-76
2023/01/13 11:32:23;;;;;;;;;24.00;19.67;;;;;25.68;39.90;101388.06;5029942;28;45406;-79
2023/01/13 11:34:54;;;;;;;;;20.33;18.33;;;;;25.68;40.24;101396.22;5032836;28;45381;-79
2023/01/13 11:37:30;;;;;;;;;19.00;15.00;;;;;25.68;40.22;101404.38;5031495;28;46081;-79
2023/01/13 11:40:24;;;;;;;;;19.33;15.33;;;;;25.65;39.91;101409.13;5026689;28;45806;-79
2023/01/13 11:42:53;;;;;;;;;22.67;16.67;;;;;25.65;39.76;101403.69;5027094;28;45419;-79
2023/01/13 11:45:29;;;;;;;;;17.33;15.33;;;;;25.64;39.88;101407.44;5030653;28;45657;-80
2023/01/13 11:47:57;;;;;;;;;19.33;15.67;;;;;25.58;40.08;101399.94;5028684;28;46298;-77
2023/01/13 11:50:52;;;;;;;;;17.67;16.00;;;;;25.65;40.10;101422.72;5032135;28;45438;-77
2023/01/13 11:53:18;;;;;;;;;18.33;15.00;;;;;25.64;39.45;101420.16;5019036;28;45509;-77
2023/01/13 11:55:52;;;;;;;;;13.67;13.67;;;;;25.62;39.52;101414.03;5028757;28;45432;-79
2023/01/13 11:58:30;;;;;;;;;18.00;12.33;;;;;25.59;39.94;101414.38;5030843;28;46335;-78
2023/01/13 12:01:14;;;;;;;;;16.33;12.67;;;;;25.58;39.75;101407.25;5020611;28;45356;-79
2023/01/13 12:03:51;;;;;;;;;15.33;15.00;;;;;25.58;39.67;101405.38;5030772;28;45312;-80
2023/01/13 12:06:29;;;;;;;;;14.00;13.67;;;;;25.60;39.67;101407.91;5032579;28;45464;-80
2023/01/13 12:09:13;;;;;;;;;14.33;11.00;;;;;25.61;39.84;101424.06;5025123;28;45502;-79
2023/01/13 12:12:18;;;;;;;;;13.67;12.00;;;;;25.65;39.99;101416.44;5033653;28;45388;-77
2023/01/13 12:15:06;;;;;;;;;13.33;12.33;;;;;25.68;39.73;101413.38;5031964;28;45789;-80
2023/01/13 12:18:13;;;;;;;;;10.00;8.33;;;;;25.72;39.72;101416.59;5033940;28;45531;-79
2023/01/13 12:20:49;;;;;;;;;15.50;12.50;;;;;25.75;40.02;101421.72;5013927;28;46450;-81
2023/01/13 12:23:31;;;;;;;;;16.33;12.67;;;;;25.76;39.43;101426.97;5011098;28;45553;-82
2023/01/13 12:26:23;;;;;;;;;14.33;10.67;;;;;25.79;39.67;101417.66;5020437;28;45345;-80
2023/01/13 12:29:06;;;;;;;;;16.00;15.00;;;;;25.81;39.98;101428.34;5028165;28;45788;-76
2023/01/13 12:31:35;;;;;;;;;13.00;12.00;;;;;25.83;39.76;101435.31;4994525;28;45484;-75
2023/01/13 12:34:25;;;;;;;;;15.00;14.00;;;;;25.85;39.45;101425.13;5010018;28;45473;-80
2023/01/13 12:37:30;;;;;;;;;14.33;14.00;;;;;25.87;39.96;101428.53;5011288;28;45642;-78
2023/01/13 12:40:19;;;;;;;;;13.67;11.33;;;;;25.88;39.48;101438.38;5004350;28;45311;-81
2023/01/13 12:45:38;;;;;;;;;11.33;10.67;;;;;25.83;39.30;101429.88;5010832;28;45552;-76
2023/01/13 12:48:04;;;;;;;;;13.67;12.33;;;;;25.86;39.88;101440.44;5013281;28;45445;-76
2023/01/13 12:50:29;;;;;;;;;16.67;14.67;;;;;25.90;39.86;101446.38;5011840;28;45457;-76
2023/01/13 12:52:57;;;;;;;;;13.33;11.33;;;;;25.94;39.88;101453.19;5016364;28;46185;-76
2023/01/13 12:55:27;;;;;;;;;11.00;10.00;;;;;26.00;40.12;101446.22;5018482;28;45703;-76
2023/01/13 12:58:05;;;;;;;;;10.00;10.00;;;;;26.08;40.00;101454.41;5038097;28;45686;-77
2023/01/13 13:00:59;;;;;;;;;8.67;8.67;;;;;26.16;39.45;101450.84;5037396;28;45554;-79
2023/01/13 13:03:31;;;;;;;;;13.33;13.33;;;;;26.23;39.42;101446.41;5024708;28;48780;-79
2023/01/13 13:06:00;;;;;;;;;13.00;11.67;;;;;26.29;39.34;101443.03;5032060;28;45586;-78
2023/01/13 13:08:59;;;;;;;;;15.33;12.00;;;;;26.37;39.85;101441.34;5023715;28;45828;-80
2023/01/13 13:14:34;;;;;;;;;7.00;7.00;;;;;26.50;39.80;101440.81;5033151;28;45453;-77
2023/01/13 13:17:00;;;;;;;;;17.33;12.00;;;;;26.55;39.51;101441.13;5032006;28;45706;-78
2023/01/13 13:19:25;;;;;;;;;10.33;10.33;;;;;26.58;39.29;101438.09;5035634;28;45456;-76
2023/01/13 13:22:12;;;;;;;;;16.67;15.33;;;;;26.61;39.38;101434.16;5033742;28;45448;-75
2023/01/13 13:24:39;;;;;;;;;23.33;17.67;;;;;26.62;39.70;101425.81;5034209;28;47063;-78
2023/01/13 13:27:35;;;;;;;;;15.67;15.00;;;;;26.63;39.41;101430.25;5038379;28;45447;-77
2023/01/13 13:30:27;;;;;;;;;17.00;16.33;;;;;26.61;39.18;101431.44;5039697;28;45389;-76
2023/01/13 13:33:10;;;;;;;;;16.00;14.00;;;;;26.61;38.65;101439.59;5033496;28;47442;-75
2023/01/13 13:35:54;;;;;;;;;15.00;13.67;;;;;26.62;38.98;101446.75;5017770;28;46517;-76
2023/01/13 13:47:40;;;;;;;;;16.33;12.67;;;;;26.82;39.21;101463.56;4977295;28;45900;-77
2023/01/13 13:50:19;;;;;;;;;16.33;15.67;;;;;26.86;38.85;101458.63;4993091;28;45478;-75
2023/01/13 13:52:53;;;;;;;;;14.67;13.00;;;;;26.90;39.12;101468.13;4987685;28;45691;-77
2023/01/13 13:55:24;;;;;;;;;16.67;13.00;;;;;26.92;39.05;101477.84;4987110;28;45464;-78
2023/01/13 13:57:52;;;;;;;;;10.67;10.67;;;;;26.92;39.19;101468.81;4986857;28;45457;-75
2023/01/13 14:00:25;;;;;;;;;14.67;11.33;;;;;26.94;39.00;101475.81;4991473;28;46848;-77
2023/01/13 14:03:01;;;;;;;;;14.00;13.33;;;;;26.94;38.40;101474.97;4990131;28;45881;-77
2023/01/13 14:05:30;;;;;;;;;14.00;13.67;;;;;26.95;38.61;101495.75;4988748;28;45494;-76
2023/01/13 14:08:14;;;;;;;;;10.33;10.33;;;;;26.98;38.46;101483.63;4986713;28;46138;-76
2023/01/13 14:10:43;;;;;;;;;17.67;14.33;;;;;26.98;38.95;101492.69;4992114;28;45568;-76
2023/01/13 14:13:29;;;;;;;;;11.67;11.00;;;;;27.04;39.22;101500.16;5024517;28;45449;-76
2023/01/13 14:16:04;;;;;;;;;13.00;11.67;;;;;27.06;38.87;101498.06;5036741;28;45389;-76
2023/01/13 14:18:32;;;;;;;;;12.67;12.33;;;;;27.09;39.16;101511.38;5035081;28;46421;-77
2023/01/13 14:21:18;;;;;;;;;11.00;11.00;;;;;27.13;38.37;101514.59;5034275;28;45448;-78
2023/01/13 14:23:52;;;;;;;;;10.33;9.00;;;;;27.15;38.93;101520.72;5035689;28;45482;-75
2023/01/13 14:26:23;;;;;;;;;12.33;10.33;;;;;27.16;39.12;101525.16;5038434;28;45723;-75
2023/01/13 14:28:48;;;;;;;;;12.00;10.33;;;;;27.19;38.54;101529.38;5037134;28;45529;-76
2023/01/13 14:31:14;;;;;;;;;13.33;12.67;;;;;27.19;38.98;101535.72;5043662;28;45736;-75
2023/01/13 14:33:47;;;;;;;;;11.33;10.00;;;;;27.21;38.35;101535.50;5035494;28;45321;-75
2023/01/13 14:36:14;;;;;;;;;15.33;11.33;;;;;27.21;38.60;101538.22;5030625;28;45593;-74
2023/01/13 14:38:40;;;;;;;;;12.33;11.33;;;;;27.15;38.51;101538.94;5033842;28;45510;-77
2023/01/13 14:41:18;;;;;;;;;14.67;13.33;;;;;27.14;38.25;101540.78;5027880;28;45352;-74
2023/01/13 14:43:45;;;;;;;;;14.00;11.67;;;;;27.16;38.41;101551.53;5029135;28;45615;-74
2023/01/13 14:46:12;;;;;;;;;11.00;10.00;;;;;27.12;39.00;101556.47;5022411;28;45558;-78
2023/01/13 14:48:42;;;;;;;;;12.33;10.00;;;;;27.11;38.84;101557.50;5020844;28;45517;-77
2023/01/13 14:51:10;;;;;;;;;11.00;11.00;;;;;27.09;38.85;101549.50;5027104;28;45507;-77
2023/01/13 14:53:42;;;;;;;;;14.00;11.00;;;;;27.10;38.50;101559.38;5030174;28;45443;-78
2023/01/13 14:56:35;;;;;;;;;15.00;10.33;;;;;27.12;38.89;101566.53;5034186;28;45529;-77
2023/01/13 14:59:32;;;;;;;;;14.33;10.00;;;;;27.14;39.04;101568.03;5033398;28;45462;-77
2023/01/13 15:01:59;;;;;;;;;9.33;8.33;;;;;27.17;38.76;101583.19;5035010;28;45641;-76
2023/01/13 15:04:30;;;;;;;;;7.00;7.00;;;;;27.20;39.14;101588.31;5028198;28;45483;-78
2023/01/13 15:06:57;;;;;;;;;13.00;11.67;;;;;27.21;39.03;101590.88;5033225;28;45433;-76
2023/01/13 15:09:26;;;;;;;;;12.00;8.33;;;;;27.21;38.42;101592.72;5036696;28;47421;-77
2023/01/13 15:11:53;;;;;;;;;10.00;8.67;;;;;27.21;38.42;101607.22;5032651;28;45313;-78
2023/01/13 15:14:25;;;;;;;;;10.33;9.00;;;;;27.19;38.20;101601.09;5028952;28;45332;-75
2023/01/13 15:16:50;;;;;;;;;10.33;9.00;;;;;27.10;37.79;101596.69;5033044;28;45606;-77
2023/01/13 15:19:15;;;;;;;;;13.67;10.67;;;;;27.02;37.21;101586.63;5031879;28;50760;-75
2023/01/13 15:21:41;;;;;;;;;23.33;13.00;;;;;26.94;37.75;101592.94;5031955;28;45711;-73
2023/01/13 15:24:06;;;;;;;;;22.00;15.00;;;;;26.85;37.47;101604.81;5032582;28;45856;-75
2023/01/13 15:26:32;;;;;;;;;17.67;17.00;;;;;26.73;37.28;101606.19;5030461;28;45674;-76
2023/01/13 15:28:59;;;;;;;;;11.33;7.33;;;;;26.65;37.58;101601.59;5039731;28;46133;-76
2023/01/13 15:31:26;;;;;;;;;17.33;12.00;;;;;26.65;37.06;101620.66;5033603;28;45545;-77
2023/01/13 15:33:52;;;;;;;;;16.67;11.33;;;;;26.64;36.90;101640.75;5032139;28;45506;-76
2023/01/13 15:36:31;;;;;;;;;20.00;14.00;;;;;26.63;37.42;101648.03;5029185;28;45504;-73
2023/01/13 15:38:58;;;;;;;;;15.00;11.00;;;;;26.63;37.04;101645.31;5041468;28;46263;-73
2023/01/13 15:46:54;;;;;;;;;13.33;12.67;;;;;26.67;37.62;101641.25;5022058;28;45475;-73
2023/01/13 15:49:33;;;;;;;;;18.67;15.33;;;;;26.72;37.83;101642.63;5026253;28;45428;-76
2023/01/13 15:52:00;;;;;;;;;10.00;10.00;;;;;26.74;37.80;101646.00;5025135;28;45760;-76
2023/01/13 15:54:26;;;;;;;;;18.00;13.33;;;;;26.76;37.86;101644.81;5033384;28;45534;-74
2023/01/13 15:56:52;;;;;;;;;16.00;12.00;;;;;26.80;37.50;101643.47;5028541;28;45376;-72
2023/01/13 15:59:22;;;;;;;;;17.00;14.67;;;;;26.87;37.90;101653.69;5026687;28;47752;-75
2023/01/13 16:01:48;;;;;;;;;11.00;8.33;;;;;26.90;37.43;101650.63;5030460;28;45463;-73
2023/01/13 16:04:13;;;;;;;;;12.00;9.00;;;;;26.92;37.93;101646.72;5026433;28;45904;-75
2023/01/13 16:06:38;;;;;;;;;13.00;10.33;;;;;26.96;37.15;101647.25;5030550;28;45652;-76
2023/01/13 16:09:04;;;;;;;;;10.67;9.00;;;;;27.01;38.05;101644.03;5029153;28;45398;-75
2023/01/13 16:11:30;;;;;;;;;14.33;12.33;;;;;27.01;37.34;101647.59;5032626;28;45532;-76
2023/01/13 16:13:55;;;;;;;;;11.00;11.00;;;;;27.04;37.38;101654.56;5029036;28;45821;-76
2023/01/13 16:16:24;;;;;;;;;17.00;11.00;;;;;27.06;37.51;101661.53;5023785;28;45635;-76
2023/01/13 16:18:50;;;;;;;;;10.00;10.00;;;;;27.05;37.08;101651.69;5032314;28;46037;-75
2023/01/13 16:21:19;;;;;;;;;14.33;13.00;;;;;27.08;37.86;101658.66;5030593;28;45368;-76
2023/01/13 16:23:44;;;;;;;;;13.00;12.33;;;;;27.06;37.39;101658.81;5037146;28;45563;-76
2023/01/13 16:26:18;;;;;;;;;13.00;10.67;;;;;27.10;37.67;101659.34;5035978;28;45381;-78
2023/01/13 16:28:43;;;;;;;;;10.33;10.00;;;;;27.10;37.50;101662.06;5034602;28;45575;-79
2023/01/13 16:31:18;;;;;;;;;16.00;12.33;;;;;27.06;37.29;101656.09;5031417;28;46275;-77
2023/01/13 16:33:43;;;;;;;;;14.33;9.67;;;;;26.99;36.92;101668.72;5035291;28;45572;-79
2023/01/13 16:36:12;;;;;;;;;11.33;10.33;;;;;26.88;36.55;101669.00;5028186;28;45618;-82
2023/01/13 16:38:38;;;;;;;;;9.67;9.00;;;;;26.82;37.06;101679.53;5034628;28;47481;-81
2023/01/13 16:41:03;;;;;;;;;10.33;8.67;;;;;26.79;36.39;101685.34;5036199;28;45286;-79
2023/01/13 16:43:29;;;;;;;;;16.33;13.67;;;;;26.76;37.24;101682.94;5042637;28;45302;-81
2023/01/13 16:45:54;;;;;;;;;10.00;8.00;;;;;26.81;36.83;101696.06;5039696;28;45569;-85
2023/01/13 16:48:19;;;;;;;;;10.33;8.33;;;;;26.83;37.23;101697.63;5039946;28;52750;-81
2023/01/13 16:50:45;;;;;;;;;10.67;10.00;;;;;26.89;36.77;101706.97;5038553;28;46333;-81
2023/01/13 16:53:11;;;;;;;;;7.33;7.33;;;;;26.93;37.15;101712.94;5036977;28;46472;-80
2023/01/13 16:55:38;;;;;;;;;8.00;8.00;;;;;26.96;36.94;101718.94;5035585;28;45784;-80
2023/01/13 16:58:04;;;;;;;;;11.33;9.00;;;;;27.01;37.34;101717.59;5036631;28;46204;-81
2023/01/13 17:00:29;;;;;;;;;11.67;8.67;;;;;27.06;36.63;101731.53;5035492;28;45464;-80
2023/01/13 17:02:57;;;;;;;;;9.00;8.00;;;;;27.09;36.82;101723.88;5034946;28;45727;-79
2023/01/13 17:05:23;;;;;;;;;8.67;8.67;;;;;27.13;36.74;101718.94;5035591;28;45475;-79
2023/01/13 17:07:48;;;;;;;;;10.33;8.33;;;;;27.15;36.79;101729.66;5034592;28;46261;-78
2023/01/13 17:10:17;;;;;;;;;9.00;9.00;;;;;27.17;36.97;101731.19;5024437;28;46355;-78
2023/01/13 17:12:43;;;;;;;;;11.00;10.00;;;;;27.17;36.61;101741.25;5034958;28;45567;-79
2023/01/13 17:15:13;;;;;;;;;10.67;9.67;;;;;27.16;36.72;101739.53;5038323;28;45886;-75
2023/01/13 17:17:41;;;;;;;;;9.67;8.00;;;;;27.19;36.58;101739.22;5035916;28;46800;-77
2023/01/13 17:20:11;;;;;;;;;10.00;7.33;;;;;27.19;36.99;101752.84;5029852;28;45503;-79
2023/01/13 17:22:37;;;;;;;;;9.33;7.67;;;;;27.14;37.15;101747.03;5035535;28;45445;-79
